Quivira, Kansas
Current Conditions -  °F | °C
As of 8:53 PM on Saturday 25 Oct 2014 (Local Time) from KOJC Reporting Station
Clear Clear  
Wind Chill: 69°   Ceiling: Unl
Heat Index: 69°   Visibility: 10mi
Dew Point: 59°   Wind: 6mph
Humidity: 70%   Direction: 110°ESE
Pressure: 30"   Gusts: NA
Location:  39.0067°N, 94.7872°W
Report Text: KOJC 260153Z 11005KT 10SM CLR 21/15 A3000 RMK AO2 SLP154 T02060150
Loading
Personal Weather Stations






























Interactive Weather Map
Tropical Storm Tracking
New forecast layout! Learn more

10-Day Weather Forecast

Advertisements
Track Severe Weather on mobile